createdAt,value
2022-08-26T00:02:12.640Z,99415.00
2022-08-26T00:04:41.316Z,99410.00
2022-08-26T00:07:09.645Z,99411.00
2022-08-26T00:09:40.239Z,99404.00
2022-08-26T00:12:12.460Z,99403.00
2022-08-26T00:14:42.022Z,99404.00
2022-08-26T00:17:10.582Z,99412.00
2022-08-26T00:19:40.156Z,99412.00
2022-08-26T00:22:08.429Z,99409.00
2022-08-26T00:24:36.449Z,99408.00
2022-08-26T00:27:04.805Z,99415.00
2022-08-26T00:29:37.362Z,99412.00
2022-08-26T00:32:07.694Z,99406.00
2022-08-26T00:34:36.521Z,99404.00
2022-08-26T00:37:05.087Z,99401.00
2022-08-26T00:39:37.854Z,99404.00
2022-08-26T00:42:06.229Z,99403.00
2022-08-26T00:44:34.149Z,99404.00
2022-08-26T00:47:09.281Z,99403.00
2022-08-26T00:49:44.851Z,99406.00
2022-08-26T00:52:19.145Z,99402.00
2022-08-26T00:54:56.148Z,99406.00
2022-08-26T00:57:25.443Z,99401.00
2022-08-26T00:59:59.843Z,99405.00
2022-08-26T01:02:30.154Z,99406.00
2022-08-26T01:05:03.205Z,99402.00
2022-08-26T01:07:33.295Z,99399.00
2022-08-26T01:10:08.683Z,99397.00
2022-08-26T01:12:45.091Z,99395.00
2022-08-26T01:15:21.233Z,99395.00
2022-08-26T01:17:50.816Z,99397.00
2022-08-26T01:20:37.941Z,99396.00
2022-08-26T01:23:10.073Z,99408.00
2022-08-26T01:25:43.122Z,99403.00
2022-08-26T01:28:17.648Z,99398.00
2022-08-26T01:30:49.061Z,99397.00
2022-08-26T01:33:21.794Z,99404.00
2022-08-26T01:35:51.749Z,99399.00
2022-08-26T01:38:21.596Z,99389.00
2022-08-26T01:40:51.934Z,99401.00
2022-08-26T01:43:27.276Z,99396.00
2022-08-26T01:45:56.906Z,99402.00
2022-08-26T01:48:31.781Z,99404.00
2022-08-26T01:51:01.693Z,99399.00
2022-08-26T01:53:32.448Z,99404.00
2022-08-26T01:56:03.807Z,99406.00
2022-08-26T01:58:39.010Z,99400.00
2022-08-26T02:01:08.778Z,99403.00
2022-08-26T02:03:52.193Z,99400.00
2022-08-26T02:06:20.583Z,99400.00
2022-08-26T02:08:55.029Z,99402.00
2022-08-26T02:11:23.243Z,99401.00
2022-08-26T02:13:57.368Z,99404.00
2022-08-26T02:16:32.816Z,99395.00
2022-08-26T02:19:03.137Z,99396.00
2022-08-26T02:21:33.069Z,99400.00
2022-08-26T02:24:13.285Z,99398.00
2022-08-26T02:26:42.806Z,99390.00
2022-08-26T02:29:21.283Z,99387.00
2022-08-26T02:31:49.419Z,99395.00
2022-08-26T02:34:31.337Z,99395.00
2022-08-26T02:37:01.608Z,99390.00
2022-08-26T02:39:32.432Z,99394.00
2022-08-26T02:42:01.403Z,99395.00
2022-08-26T02:44:29.664Z,99393.00
2022-08-26T02:46:58.045Z,99395.00
2022-08-26T02:49:28.335Z,99396.00
2022-08-26T02:51:56.307Z,99397.00
2022-08-26T02:54:24.934Z,99393.00
2022-08-26T02:56:54.676Z,99389.00
2022-08-26T02:59:24.305Z,99389.00
2022-08-26T03:01:52.611Z,99379.00
2022-08-26T03:04:25.838Z,99374.00
2022-08-26T03:06:55.323Z,99382.00
2022-08-26T03:09:23.572Z,99379.00
2022-08-26T03:11:52.023Z,99376.00
2022-08-26T03:14:21.271Z,99381.00
2022-08-26T03:16:54.421Z,99373.00
2022-08-26T03:19:24.696Z,99376.00
2022-08-26T03:21:57.837Z,99369.00
2022-08-26T03:24:26.883Z,99371.00
2022-08-26T03:26:54.882Z,99371.00
2022-08-26T03:29:42.495Z,99375.00
2022-08-26T03:32:11.525Z,99367.00
2022-08-26T03:34:39.529Z,99356.00
2022-08-26T03:37:07.724Z,99363.00
2022-08-26T03:39:36.792Z,99366.00
2022-08-26T03:42:05.879Z,99363.00
2022-08-26T03:44:35.521Z,99363.00
2022-08-26T03:47:03.631Z,99368.00
2022-08-26T03:49:35.276Z,99365.00
2022-08-26T03:52:04.237Z,99368.00
2022-08-26T03:54:32.505Z,99366.00
2022-08-26T03:57:00.838Z,99359.00
2022-08-26T03:59:29.415Z,99364.00
2022-08-26T04:01:58.961Z,99362.00
2022-08-26T04:04:27.108Z,99368.00
2022-08-26T04:06:59.191Z,99360.00
2022-08-26T04:09:28.615Z,99364.00
2022-08-26T04:11:57.377Z,99357.00
2022-08-26T04:14:28.460Z,99371.00
2022-08-26T04:16:58.579Z,99363.00
2022-08-26T04:19:27.444Z,99369.00
2022-08-26T04:21:55.733Z,99369.00
2022-08-26T04:24:28.111Z,99368.00
2022-08-26T04:26:56.570Z,99364.00
2022-08-26T04:29:27.578Z,99360.00
2022-08-26T04:31:58.569Z,99361.00
2022-08-26T04:34:29.291Z,99356.00
2022-08-26T04:36:58.117Z,99356.00
2022-08-26T04:39:27.740Z,99358.00
2022-08-26T04:41:57.753Z,99362.00
2022-08-26T04:44:29.357Z,99362.00
2022-08-26T04:46:59.537Z,99357.00
2022-08-26T04:49:28.008Z,99354.00
2022-08-26T04:52:05.002Z,99363.00
2022-08-26T04:54:33.172Z,99360.00
2022-08-26T04:57:01.121Z,99369.00
2022-08-26T04:59:29.094Z,99368.00
2022-08-26T05:01:59.605Z,99368.00
2022-08-26T05:04:27.688Z,99370.00
2022-08-26T05:06:59.382Z,99363.00
2022-08-26T05:09:30.962Z,99357.00
2022-08-26T05:11:58.908Z,99366.00
2022-08-26T05:14:26.830Z,99364.00
2022-08-26T05:16:55.669Z,99367.00
2022-08-26T05:19:25.709Z,99371.00
2022-08-26T05:21:55.943Z,99368.00
2022-08-26T05:24:24.303Z,99368.00
2022-08-26T05:26:52.293Z,99370.00
2022-08-26T05:29:20.206Z,99368.00
2022-08-26T05:31:51.335Z,99364.00
2022-08-26T05:34:20.745Z,99367.00
2022-08-26T05:36:51.004Z,99365.00
2022-08-26T05:39:19.292Z,99367.00
2022-08-26T05:41:47.574Z,99356.00
2022-08-26T05:44:18.917Z,99362.00
2022-08-26T05:46:47.054Z,99360.00
2022-08-26T05:49:16.562Z,99362.00
2022-08-26T05:51:47.654Z,99361.00
2022-08-26T05:54:21.710Z,99356.00
2022-08-26T05:56:51.864Z,99356.00
2022-08-26T05:59:24.162Z,99359.00
2022-08-26T06:01:54.603Z,99367.00
2022-08-26T06:04:27.107Z,99369.00
2022-08-26T06:06:57.211Z,99375.00
2022-08-26T06:09:27.740Z,99365.00
2022-08-26T06:11:58.654Z,99364.00
2022-08-26T06:14:27.262Z,99363.00
2022-08-26T06:16:55.617Z,99357.00
2022-08-26T06:19:24.248Z,99368.00
2022-08-26T06:21:54.870Z,99371.00
2022-08-26T06:24:41.009Z,99355.00
2022-08-26T06:27:13.652Z,99358.00
2022-08-26T06:29:41.854Z,99359.00
2022-08-26T06:32:09.828Z,99362.00
2022-08-26T06:34:38.432Z,99361.00
2022-08-26T06:37:07.257Z,99360.00
2022-08-26T06:39:35.678Z,99356.00
2022-08-26T06:42:10.926Z,99359.00
2022-08-26T06:44:41.127Z,99360.00
2022-08-26T06:47:09.246Z,99362.00
2022-08-26T06:49:37.239Z,99362.00
2022-08-26T06:52:05.645Z,99361.00
2022-08-26T06:54:33.657Z,99354.00
2022-08-26T06:57:01.962Z,99359.00
2022-08-26T06:59:31.362Z,99356.00
2022-08-26T07:01:59.677Z,99356.00
2022-08-26T07:04:28.189Z,99359.00
2022-08-26T07:06:57.482Z,99358.00
2022-08-26T07:09:29.215Z,99356.00
2022-08-26T07:11:57.759Z,99359.00
2022-08-26T07:14:26.377Z,99357.00
2022-08-26T07:16:56.158Z,99358.00
2022-08-26T07:19:30.281Z,99359.00
2022-08-26T07:22:01.776Z,99349.00
2022-08-26T07:24:31.055Z,99356.00
2022-08-26T07:27:01.680Z,99339.00
2022-08-26T07:29:32.341Z,99348.00
2022-08-26T07:32:01.999Z,99350.00
2022-08-26T07:34:32.207Z,99346.00
2022-08-26T07:37:01.495Z,99339.00
2022-08-26T07:39:31.877Z,99339.00
2022-08-26T07:42:07.404Z,99347.00
2022-08-26T07:44:37.387Z,99341.00
2022-08-26T07:47:24.126Z,99341.00
2022-08-26T07:49:57.269Z,99345.00
2022-08-26T07:52:28.619Z,99340.00
2022-08-26T07:54:58.241Z,99336.00
2022-08-26T07:57:27.543Z,99332.00
2022-08-26T07:59:56.320Z,99341.00
2022-08-26T08:02:28.399Z,99331.00
2022-08-26T08:04:58.327Z,99327.00
2022-08-26T08:07:44.513Z,99335.00
2022-08-26T08:10:18.031Z,99336.00
2022-08-26T08:12:47.040Z,99332.00
2022-08-26T08:15:17.579Z,99329.00
2022-08-26T08:17:46.971Z,99330.00
2022-08-26T08:20:19.420Z,99323.00
2022-08-26T08:22:47.642Z,99326.00
2022-08-26T08:25:15.882Z,99320.00
2022-08-26T08:27:46.277Z,99322.00
2022-08-26T08:30:20.771Z,99320.00
2022-08-26T08:32:52.445Z,99311.00
2022-08-26T08:35:22.539Z,99324.00
2022-08-26T08:37:54.320Z,99313.00
2022-08-26T08:40:26.213Z,99312.00
2022-08-26T08:43:03.595Z,99310.00
2022-08-26T08:45:37.423Z,99318.00
2022-08-26T08:48:15.651Z,99310.00
2022-08-26T08:50:48.509Z,99314.00
2022-08-26T08:53:24.113Z,99309.00
2022-08-26T08:56:08.107Z,99306.00
2022-08-26T08:58:53.346Z,99300.00
2022-08-26T09:01:43.107Z,99300.00
2022-08-26T09:04:35.242Z,99300.00
2022-08-26T09:07:06.156Z,99294.00
2022-08-26T09:09:39.379Z,99289.00
2022-08-26T09:12:13.954Z,99289.00
2022-08-26T09:14:42.028Z,99288.00
2022-08-26T09:17:25.018Z,99289.00
2022-08-26T09:20:04.565Z,99281.00
2022-08-26T09:22:36.506Z,99292.00
2022-08-26T09:25:11.269Z,99280.00
2022-08-26T09:27:46.687Z,99285.00
2022-08-26T09:30:27.385Z,99282.00
2022-08-26T09:33:02.448Z,99278.00
2022-08-26T09:35:36.435Z,99279.00
2022-08-26T09:38:26.912Z,99277.00
2022-08-26T10:30:53.698Z,99212.00
2022-08-26T10:33:22.057Z,99207.00
2022-08-26T10:35:56.155Z,99196.00
2022-08-26T10:38:34.572Z,99202.00
2022-08-26T10:41:10.765Z,99200.00
2022-08-26T10:43:48.039Z,99195.00
2022-08-26T10:46:27.419Z,99196.00
2022-08-26T10:49:06.730Z,99194.00
2022-08-26T10:51:42.220Z,99190.00
2022-08-26T10:54:23.984Z,99188.00
2022-08-26T10:57:03.444Z,99196.00
2022-08-26T10:59:48.996Z,99197.00
2022-08-26T11:02:29.489Z,99201.00
2022-08-26T11:05:02.908Z,99196.00
2022-08-26T11:07:44.238Z,99199.00
2022-08-26T11:10:57.915Z,99201.00
2022-08-26T11:14:02.570Z,99202.00
2022-08-26T11:16:36.606Z,99188.00
2022-08-26T11:20:00.309Z,99175.00
2022-08-26T11:22:32.531Z,99176.00
2022-08-26T11:25:09.511Z,99163.00
2022-08-26T11:28:07.599Z,99160.00
2022-08-26T11:30:57.025Z,99146.00
2022-08-26T11:34:00.730Z,99150.00
2022-08-26T11:37:01.352Z,99144.00
2022-08-26T11:39:53.860Z,99147.00
2022-08-26T11:42:35.802Z,99151.00
2022-08-26T11:45:23.780Z,99150.00
2022-08-26T11:47:52.387Z,99164.00
2022-08-26T11:50:26.122Z,99167.00
2022-08-26T11:53:02.360Z,99173.00
2022-08-26T11:55:32.254Z,99167.00
2022-08-26T11:58:05.036Z,99165.00
2022-08-26T12:00:50.951Z,99163.00
2022-08-26T12:03:23.908Z,99153.00
2022-08-26T12:05:54.484Z,99146.00
2022-08-26T12:08:31.169Z,99132.00
2022-08-26T12:11:09.659Z,99119.00
2022-08-26T12:13:39.247Z,99112.00
2022-08-26T12:16:08.368Z,99114.00
2022-08-26T12:18:39.723Z,99123.00
2022-08-26T12:21:16.152Z,99111.00
2022-08-26T12:23:50.080Z,99132.00
2022-08-26T12:26:27.033Z,99134.00
2022-08-26T12:29:00.431Z,99137.00
2022-08-26T12:31:34.374Z,99122.00
2022-08-26T12:34:17.630Z,99130.00
2022-08-26T12:36:50.751Z,99126.00
2022-08-26T12:39:30.348Z,99124.00
2022-08-26T12:42:00.655Z,99124.00
2022-08-26T12:44:53.894Z,99122.00
2022-08-26T12:47:41.958Z,99131.00
2022-08-26T12:50:21.200Z,99140.00
2022-08-26T12:53:00.028Z,99139.00
2022-08-26T12:55:40.798Z,99134.00
2022-08-26T12:58:22.306Z,99141.00
2022-08-26T13:00:52.085Z,99127.00
2022-08-26T13:03:44.848Z,99137.00
2022-08-26T13:06:29.979Z,99130.00
2022-08-26T13:09:01.742Z,99124.00
2022-08-26T13:11:34.055Z,99127.00
2022-08-26T13:14:07.526Z,99141.00
2022-08-26T13:16:36.896Z,99153.00
2022-08-26T13:19:10.388Z,99139.00
2022-08-26T13:21:47.808Z,99135.00
2022-08-26T13:24:20.581Z,99121.00
2022-08-26T13:26:51.097Z,99135.00
2022-08-26T13:29:20.355Z,99164.00
2022-08-26T13:31:48.967Z,99173.00
2022-08-26T13:34:21.408Z,99171.00
2022-08-26T13:36:52.323Z,99149.00
2022-08-26T13:39:21.191Z,99150.00
2022-08-26T13:41:51.451Z,99154.00
2022-08-26T13:44:19.877Z,99145.00
2022-08-26T13:46:48.287Z,99149.00
2022-08-26T13:49:16.556Z,99142.00
2022-08-26T13:51:45.032Z,99151.00
2022-08-26T13:54:13.072Z,99130.00
2022-08-26T13:56:41.377Z,99145.00
2022-08-26T13:59:11.093Z,99149.00
2022-08-26T14:01:40.096Z,99142.00
2022-08-26T14:04:08.905Z,99133.00
2022-08-26T14:06:37.476Z,99124.00
2022-08-26T14:09:06.114Z,99115.00
2022-08-26T14:11:54.058Z,99111.00
2022-08-26T14:14:23.464Z,99106.00
2022-08-26T14:16:59.251Z,99089.00
2022-08-26T14:19:30.567Z,99112.00
2022-08-26T14:22:00.966Z,99117.00
2022-08-26T14:24:30.139Z,99112.00
2022-08-26T14:26:58.691Z,99112.00
2022-08-26T14:29:28.753Z,99106.00
2022-08-26T14:31:59.613Z,99111.00
2022-08-26T14:34:27.736Z,99096.00
2022-08-26T14:36:55.659Z,99097.00
2022-08-26T14:39:23.812Z,99100.00
2022-08-26T14:41:57.394Z,99100.00
2022-08-26T14:44:30.501Z,99099.00
2022-08-26T14:47:01.309Z,99098.00
2022-08-26T14:49:31.072Z,99102.00
2022-08-26T14:51:59.269Z,99110.00
2022-08-26T14:54:28.807Z,99108.00
2022-08-26T14:57:01.081Z,99102.00
2022-08-26T14:59:33.078Z,99097.00
2022-08-26T15:02:01.645Z,99090.00
2022-08-26T15:04:30.574Z,99083.00
2022-08-26T15:07:00.725Z,99071.00
2022-08-26T15:09:30.960Z,99065.00
2022-08-26T15:11:59.003Z,99071.00
2022-08-26T15:14:32.665Z,99065.00
2022-08-26T15:17:02.555Z,99066.00
2022-08-26T15:19:30.547Z,99060.00
2022-08-26T15:21:58.692Z,99058.00
2022-08-26T15:24:28.857Z,99052.00
2022-08-26T15:26:56.957Z,99049.00
2022-08-26T15:29:25.161Z,99049.00
2022-08-26T15:31:57.205Z,99050.00
2022-08-26T15:34:27.070Z,99066.00
2022-08-26T15:36:55.243Z,99071.00
2022-08-26T15:39:23.280Z,99071.00
2022-08-26T15:41:51.758Z,99081.00
2022-08-26T15:44:19.851Z,99086.00
2022-08-26T15:46:53.296Z,99089.00
2022-08-26T15:49:23.957Z,99091.00
2022-08-26T15:51:53.473Z,99091.00
2022-08-26T15:54:24.730Z,99098.00
2022-08-26T15:56:53.739Z,99099.00
2022-08-26T15:59:23.286Z,99099.00
2022-08-26T16:01:52.595Z,99107.00
2022-08-26T16:04:21.321Z,99102.00
2022-08-26T16:06:52.080Z,99104.00
2022-08-26T16:09:24.313Z,99105.00
2022-08-26T16:11:52.827Z,99105.00
2022-08-26T16:14:21.416Z,99079.00
2022-08-26T16:16:50.478Z,99109.00
2022-08-26T16:19:19.092Z,99107.00
2022-08-26T16:21:48.013Z,99113.00
2022-08-26T16:24:16.129Z,99076.00
2022-08-26T16:26:46.169Z,99102.00
2022-08-26T16:29:17.951Z,99097.00
2022-08-26T16:31:47.552Z,99100.00
2022-08-26T16:34:15.515Z,99112.00
2022-08-26T16:36:43.656Z,99109.00
2022-08-26T16:39:12.151Z,99113.00
2022-08-26T16:41:40.592Z,99124.00
2022-08-26T16:44:11.417Z,99125.00
2022-08-26T16:46:41.093Z,99127.00
2022-08-26T16:49:09.420Z,99130.00
2022-08-26T16:51:38.106Z,99124.00
2022-08-26T16:54:08.868Z,99128.00
2022-08-26T16:56:37.909Z,99129.00
2022-08-26T16:59:12.381Z,99132.00
2022-08-26T17:01:40.548Z,99140.00
2022-08-26T17:04:08.829Z,99141.00
2022-08-26T17:06:38.223Z,99128.00
2022-08-26T17:09:06.402Z,99127.00
2022-08-26T17:11:35.273Z,99120.00
2022-08-26T17:14:03.314Z,99114.00
2022-08-26T17:16:33.126Z,99092.00
2022-08-26T17:19:02.311Z,99092.00
2022-08-26T17:21:30.687Z,99088.00
2022-08-26T17:23:59.266Z,99093.00
2022-08-26T17:26:27.983Z,99099.00
2022-08-26T17:28:56.812Z,99093.00
2022-08-26T17:31:25.892Z,99097.00
2022-08-26T17:33:56.709Z,99089.00
2022-08-26T17:36:28.160Z,99075.00
2022-08-26T17:38:57.763Z,99078.00
2022-08-26T17:41:26.195Z,99070.00
2022-08-26T17:43:54.244Z,99068.00
2022-08-26T17:46:22.519Z,99067.00
2022-08-26T17:48:50.508Z,99055.00
2022-08-26T17:51:20.921Z,99050.00
2022-08-26T17:53:50.450Z,99049.00
2022-08-26T17:56:23.979Z,99021.00
2022-08-26T17:58:53.576Z,99039.00
2022-08-26T18:01:26.146Z,99042.00
2022-08-26T18:04:00.157Z,99036.00
2022-08-26T18:06:31.393Z,99039.00
2022-08-26T18:09:00.597Z,99042.00
2022-08-26T18:11:30.041Z,99039.00
2022-08-26T18:13:59.420Z,99041.00
2022-08-26T18:16:29.831Z,99049.00
2022-08-26T18:18:58.405Z,99056.00
2022-08-26T18:21:29.632Z,99072.00
2022-08-26T18:23:57.800Z,99087.00
2022-08-26T18:26:29.554Z,99087.00
2022-08-26T18:28:58.346Z,99069.00
2022-08-26T18:31:26.995Z,99099.00
2022-08-26T18:33:56.070Z,99107.00
2022-08-26T18:36:26.896Z,99100.00
2022-08-26T18:38:57.385Z,99110.00
2022-08-26T18:41:28.840Z,99118.00
2022-08-26T18:43:57.633Z,99117.00
2022-08-26T18:46:28.077Z,99115.00
2022-08-26T18:48:58.369Z,99105.00
2022-08-26T18:51:30.905Z,99104.00
2022-08-26T18:54:04.362Z,99113.00
2022-08-26T18:56:33.553Z,99117.00
2022-08-26T18:59:01.717Z,99122.00
2022-08-26T19:01:32.787Z,99119.00
2022-08-26T19:04:03.385Z,99117.00
2022-08-26T19:06:35.488Z,99115.00
2022-08-26T19:09:07.918Z,99136.00
2022-08-26T19:11:42.781Z,99115.00
2022-08-26T19:14:14.066Z,99127.00
2022-08-26T19:16:44.467Z,99125.00
2022-08-26T19:19:12.619Z,99136.00
2022-08-26T19:21:41.517Z,99140.00
2022-08-26T19:24:17.342Z,99127.00
2022-08-26T19:26:48.399Z,99127.00
2022-08-26T19:31:51.102Z,99127.00
2022-08-26T19:34:20.247Z,99123.00
2022-08-26T19:36:49.301Z,99127.00
2022-08-26T19:39:18.686Z,99101.00
2022-08-26T19:41:46.647Z,99116.00
2022-08-26T19:44:39.671Z,99119.00
2022-08-26T19:47:11.176Z,99113.00
2022-08-26T19:49:39.814Z,99107.00
2022-08-26T19:52:11.080Z,99103.00
2022-08-26T19:54:41.391Z,99098.00
2022-08-26T19:57:09.346Z,99093.00
2022-08-26T19:59:37.421Z,99082.00
2022-08-26T20:02:10.134Z,99098.00
2022-08-26T20:04:39.434Z,99088.00
2022-08-26T20:07:07.510Z,99094.00
2022-08-26T20:09:36.125Z,99098.00
2022-08-26T20:12:08.485Z,99105.00
2022-08-26T20:14:37.604Z,99109.00
2022-08-26T20:17:07.208Z,99099.00
2022-08-26T20:19:53.805Z,99115.00
2022-08-26T20:22:22.423Z,99113.00
2022-08-26T20:24:51.581Z,99118.00
2022-08-26T20:27:27.317Z,99101.00
2022-08-26T20:30:09.574Z,99101.00
2022-08-26T20:32:38.497Z,99121.00
2022-08-26T20:35:09.938Z,99118.00
2022-08-26T20:37:38.997Z,99124.00
2022-08-26T20:40:09.457Z,99130.00
2022-08-26T20:42:39.033Z,99139.00
2022-08-26T20:45:09.232Z,99142.00
2022-08-26T20:47:37.248Z,99152.00
2022-08-26T20:50:06.397Z,99151.00
2022-08-26T20:52:34.493Z,99156.00
2022-08-26T20:55:02.617Z,99148.00
2022-08-26T20:57:30.655Z,99146.00
2022-08-26T21:00:00.993Z,99147.00
2022-08-26T21:02:29.301Z,99148.00
2022-08-26T21:04:58.106Z,99116.00
2022-08-26T21:07:26.668Z,99148.00
2022-08-26T21:09:55.591Z,99148.00
2022-08-26T21:12:23.594Z,99137.00
2022-08-26T21:14:51.497Z,99138.00
2022-08-26T21:17:20.700Z,99136.00
2022-08-26T21:19:49.285Z,99138.00
2022-08-26T21:22:17.641Z,99155.00
2022-08-26T21:24:45.904Z,99155.00
2022-08-26T21:27:14.139Z,99155.00
2022-08-26T21:29:49.703Z,99165.00
2022-08-26T21:32:21.632Z,99178.00
2022-08-26T21:34:49.989Z,99169.00
2022-08-26T21:37:18.398Z,99154.00
2022-08-26T21:39:46.719Z,99137.00
2022-08-26T21:42:15.337Z,99122.00
2022-08-26T21:44:45.029Z,99114.00
2022-08-26T21:47:23.067Z,99124.00
2022-08-26T21:49:51.550Z,99132.00
2022-08-26T21:52:20.223Z,99125.00
2022-08-26T21:54:49.268Z,99144.00
2022-08-26T21:57:18.427Z,99144.00
2022-08-26T21:59:46.413Z,99152.00
2022-08-26T22:02:15.080Z,99138.00
2022-08-26T22:04:48.698Z,99142.00
2022-08-26T22:07:19.126Z,99148.00
2022-08-26T22:09:47.844Z,99142.00
2022-08-26T22:12:18.072Z,99118.00
2022-08-26T22:14:47.041Z,99162.00
2022-08-26T22:17:15.944Z,99164.00
2022-08-26T22:19:46.046Z,99169.00
2022-08-26T22:22:16.106Z,99162.00
2022-08-26T22:24:44.337Z,99145.00
2022-08-26T22:27:13.289Z,99145.00
2022-08-26T22:29:42.088Z,99140.00
2022-08-26T22:32:10.432Z,99114.00
2022-08-26T22:34:38.619Z,99124.00
2022-08-26T22:37:08.642Z,99103.00
2022-08-26T22:39:36.918Z,99100.00
2022-08-26T22:42:05.989Z,99093.00
2022-08-26T22:44:36.535Z,99067.00
2022-08-26T22:47:04.708Z,99051.00
2022-08-26T22:49:32.804Z,99084.00
2022-08-26T22:52:00.885Z,99061.00
2022-08-26T22:54:30.280Z,99077.00
2022-08-26T22:56:58.361Z,99073.00
2022-08-26T22:59:26.431Z,99076.00
2022-08-26T23:01:54.585Z,99075.00
2022-08-26T23:04:22.716Z,99080.00
2022-08-26T23:06:50.951Z,99077.00
2022-08-26T23:09:20.119Z,99052.00
2022-08-26T23:11:51.052Z,99081.00
2022-08-26T23:14:20.213Z,99055.00
2022-08-26T23:16:48.823Z,99088.00
2022-08-26T23:19:20.078Z,99082.00
2022-08-26T23:21:49.346Z,99082.00
2022-08-26T23:24:18.389Z,99100.00
2022-08-26T23:26:47.308Z,99065.00
2022-08-26T23:29:16.698Z,99103.00
2022-08-26T23:31:44.765Z,99105.00
2022-08-26T23:34:31.736Z,99113.00
2022-08-26T23:37:00.348Z,99118.00
2022-08-26T23:39:29.320Z,99119.00
2022-08-26T23:41:58.054Z,99117.00
2022-08-26T23:44:28.245Z,99121.00
2022-08-26T23:46:56.544Z,99121.00
2022-08-26T23:49:26.383Z,99121.00
2022-08-26T23:52:12.799Z,99117.00
2022-08-26T23:54:41.814Z,99106.00
2022-08-26T23:57:10.592Z,99118.00
2022-08-26T23:59:39.952Z,99113.00
